1st December 2019 | Otago, New Zealand

The Pioneer fuelled by Nutri-Grain (2019)

Stage 1 - Moke Lake to Arrowtown Teams: Masters Men

Pos Team Name # Members Team Time Points Overall Pos
1 (#440) (#)) OFF THE CHAIN 2 04:05:19 43 11
2 (#432) (#)) RIVET RACING 2 04:20:43 71 18
3 (#410) (#)) CYCLE OBSESSION 2 04:22:14 75 19
4 (#429) (#)) OPTIMAL PERFORMANCE 2 04:25:41 87 22
5 (#412) (#)) CYCLINGTIPS.COM 2 04:27:22 91 23
6 (#434) (#)) SHAUN & MATT - AKA SHAT 2 04:34:04 111 28
7 (#413) (#)) DAIKIN THERMAL SOLUTIONS 2 04:37:39 131 33
8 (#437) (#)) SILVERSKYCYCLE 2 04:39:25 139 35
9 (#444) (#)) TEAM SMIDDY 2 04:40:25 151 38
10 (#436) (#)) SHOW NO WEAKNESS 2 04:41:04 155 39
11 (#411) (#)) STICKY BOTTLE 2 04:42:06 159 40
12 (#414) (#)) DUSTYDAZE WHANGAREI 2 04:42:54 163 41
13 (#427) (#)) OAMARU HONDA 2 04:51:36 175 44
14 (#452) (#)) VEGAS BOYS 2 04:59:26 207 52
15 (#430) (#)) OUT OF OFFICE 2 05:07:09 227 57
16 (#424) (#)) MEOGP RACING TEAM 2 05:11:28 243 61
17 (#428) (#)) OLD BOYS OUT OF CONTROL 2 05:21:45 267 67
18 (#405) (#)) BLACKYARD RACING - STRAYA 2 05:27:18 275 69
19 (#422) (#)) KEA - EAGLE 2 05:28:44 283 71
20 (#454) (#)) WAZZA DUO 2 05:32:05 291 73
21 (#450) (#)) THE WOLFPACK 2 05:32:40 295 74
22 (#449) (#)) THE VIKINGS 2 05:43:45 345 86
23 (#443) (#)) TEAM RACK 'N' STACK 2 05:44:36 349 87
24 (#447) (#)) THE BENDS 2 05:47:33 361 90
25 (#419) (#)) ICE 2 05:48:15 369 92
26 (#433) (#)) RPM 2 05:49:07 373 93
27 (#408) (#)) CALSONASSOS IBIZA 1 2 05:51:36 385 96
28 (#451) (#)) TWO WEAK LINKS 2 05:51:45 393 98
29 (#426) (#)) NEW WORLD KUMEU 2 05:54:41 401 100
30 (#438) (#)) SINOGULF 2 05:57:55 419 104
31 (#415) (#)) FIZO CYCLING 2 06:02:15 431 107
32 (#407) (#)) CALCONASSOS IBIZA 3 2 06:07:14 439 109
33 (#401) (#)) 2 BROKE BLOKES 2 06:10:39 447 111
34 (#445) (#)) TERRA FIRMA SKODA 2 06:14:32 463 115
35 (#402) (#)) 4 STRONG LEGS 2 06:20:22 475 118
36 (#446) (#)) THE 2 AMIGOS 2 06:25:09 497 123
37 (#417) (#)) HILLBILLYS 2 06:25:48 505 125
38 (#456) (#)) ZOOMEN 2 06:31:40 517 128
39 (#420) (#)) INOSYM 2 06:32:33 521 129
40 (#409) (#)) CALSONASSOS IBIZA 4 2 06:42:29 563 139
41 (#442) (#)) TEAM KT-26 2 06:51:55 599 147
42 (#416) (#)) GLOBALID 2 06:54:19 607 150
43 (#441) (#)) TEAM DANÆS AHON 2 06:56:38 611 151
44 (#421) (#)) ITS CHEAPER THAN THERAPY 2 07:00:16 623 154
45 (#406) (#)) BOTH SIDES OF THE DITCH 2 07:02:59 631 156
46 (#453) (#)) WALTER AND STATLER 2 07:04:48 635 157
47 (#423) (#)) LUP & HONG 2 07:12:16 647 160
48 (#455) (#)) WINE DINE FINISH LINE 2 07:37:50 665 164
49 (#439) (#)) SYED & JUAN MTB TEAM 2 08:09:38 685 169
50 (#418) (#)) I CLIMB WELL FOR MY WEIGHT 2 08:43:52 691 170
(#435) (#)) SHIMANO 1